In Rescue
 
Open Full Screen Window  High Contrast Mode
Wind Gusting 00 knots
04
April 02, 2020 10:38 PM CDT
Present Weather: Heavy Rain
Weather Information
Wind Direction
  230 °
Wind Speed
  04 kt (5 mph)
Wind Gust
  00 kt (0 mph)
Altimeter
29.95 in
Visibility
4 SM
Temperature
11° C
52° F
Dewpoint
11° C
52° F
Humidity
100%
1hr Rain Fall
00.01 in.
24hr Rain Fall
00.01 in.
Sky Condition
Overcast @ 8,000 ft
Broken @ 4,400 ft
Broken @ 3,700 ft
MVFR

METAR KAEL 030338Z AUTO 23004KT 4SM +RA BKN037 BKN044 OVC080 11/11 A2995 RMK AO2 P0001

FAA Disclaimer: The data displayed is for advisory purposes only and is not to be used for flight planning or operations.